.
WxDataArchive / Data Records for 2010-10-18
2010-10-17 October 2010 2010-10-19

Data Records for Monday, 18 October 2010

Time	Temp	Chill	HIndex	Humid	Dewpt	 Wind 	HiWind	WindDir	Rain 	Barom 
-----	----	-----	------	-----	-----	------	------	-------	-----	----- 
00:00	48.2	48.2	48.2	55	32.8	0	0	---	0.00	30.046 
00:05	47.9	47.9	47.9	56	33.0	0	0	---	0.00	30.046 
00:10	47.6	47.6	47.6	57	33.1	0	0	---	0.00	30.046 
00:15	47.4	47.4	47.4	57	32.9	0	0	---	0.00	30.051 
00:20	47.3	47.3	47.3	58	33.3	0	0	---	0.00	30.051 
00:25	47.1	47.1	47.1	58	33.1	0	0	---	0.00	30.051 
00:30	47.0	47.0	47.0	58	33.0	0	0	---	0.00	30.047 
00:35	47.0	47.0	47.0	59	33.4	0	0	---	0.00	30.047 
00:40	47.0	47.0	47.0	59	33.4	0	0	---	0.00	30.047 
00:45	46.8	46.8	46.8	59	33.2	0	0	---	0.00	30.049 
00:50	46.8	46.8	46.8	59	33.2	0	0	---	0.00	30.049 
00:55	46.7	46.7	46.7	59	33.1	0	0	---	0.00	30.049 
01:00	46.4	46.4	46.4	59	32.9	0	0	---	0.00	30.043 
01:05	46.1	46.1	46.1	60	33.0	0	0	---	0.00	30.043 
01:10	45.8	45.8	45.8	60	32.7	0	0	---	0.00	30.043 
01:15	45.4	45.4	45.4	62	33.2	0	0	---	0.00	30.043 
01:20	45.1	45.1	45.1	63	33.3	0	0	---	0.00	30.043 
01:25	44.6	44.6	44.6	63	32.8	0	0	---	0.00	30.043 
01:30	44.3	44.3	44.3	63	32.5	0	0	---	0.00	30.056 
01:35	43.9	43.9	43.9	64	32.5	0	0	---	0.00	30.056 
01:40	43.6	43.6	43.6	65	32.6	0	0	---	0.00	30.056 
01:45	43.3	43.3	43.3	66	32.7	0	0	---	0.00	30.057 
01:50	42.9	42.9	42.9	67	32.7	0	0	---	0.00	30.057 
01:55	42.6	42.6	42.6	68	32.8	0	0	---	0.00	30.057 
02:00	42.3	42.3	42.3	69	32.9	0	0	---	0.00	30.050 
02:05	42.1	42.1	42.1	69	32.7	0	0	---	0.00	30.050 
02:10	41.8	41.8	41.8	69	32.4	0	0	---	0.00	30.050 
02:15	41.5	41.5	41.5	70	32.5	0	0	---	0.00	30.050 
02:20	41.2	41.2	41.2	71	32.5	0	0	---	0.00	30.050 
02:25	41.1	41.1	41.1	72	32.8	0	0	---	0.00	30.050 
02:30	40.8	40.8	40.8	73	32.8	0	0	---	0.00	30.047 
02:35	40.6	40.6	40.6	74	33.0	0	0	---	0.00	30.047 
02:40	40.3	40.3	40.3	74	32.7	0	0	---	0.00	30.047 
02:45	40.2	40.2	40.2	75	32.9	0	0	---	0.00	30.047 
02:50	40.1	40.1	40.1	76	33.2	0	0	---	0.00	30.047 
02:55	39.9	39.9	39.9	77	33.3	0	0	---	0.00	30.047 
03:00	39.8	39.8	39.8	77	33.2	0	0	---	0.00	30.040 
03:05	39.6	39.6	39.6	78	33.3	0	0	---	0.00	30.040 
03:10	39.8	39.8	39.8	79	33.8	0	0	---	0.00	30.040 
03:15	39.9	39.9	39.9	79	33.9	0	0	---	0.00	30.047 
03:20	40.1	40.1	40.1	79	34.1	0	0	---	0.00	30.047 
03:25	40.1	40.1	40.1	79	34.1	0	0	---	0.00	30.047 
03:30	40.1	40.1	40.1	79	34.1	0	0	---	0.00	30.042 
03:35	40.2	40.2	40.2	79	34.2	0	0	---	0.00	30.042 
03:40	40.2	40.2	40.2	79	34.2	0	0	---	0.00	30.042 
03:45	40.3	40.3	40.3	79	34.3	0	0	---	0.00	30.035 
03:50	40.5	40.5	40.5	79	34.5	0	0	---	0.00	30.035 
03:55	40.5	40.5	40.5	79	34.5	0	0	---	0.00	30.035 
04:00	40.8	40.8	40.8	80	35.1	0	0	---	0.00	30.033 
04:05	40.9	40.9	40.9	80	35.2	0	0	---	0.00	30.033 
04:10	41.1	41.1	41.1	79	35.1	0	0	---	0.00	30.033 
04:15	41.2	41.2	41.2	79	35.2	0	0	---	0.00	30.024 
04:20	41.3	41.3	41.3	80	35.6	0	0	---	0.00	30.024 
04:25	41.5	41.5	41.5	79	35.5	0	0	---	0.00	30.024 
04:30	41.6	41.6	41.6	79	35.6	0	0	---	0.00	30.016 
04:35	41.6	41.6	41.6	79	35.6	0	0	---	0.00	30.016 
04:40	41.8	41.8	41.8	80	36.1	0	0	---	0.00	30.016 
04:45	41.8	41.8	41.8	80	36.1	0	0	---	0.00	30.016 
04:50	41.8	41.8	41.8	79	35.8	0	0	---	0.00	30.016 
04:55	41.9	41.9	41.9	79	35.9	0	0	---	0.00	30.016 
05:00	41.9	41.9	41.9	79	35.9	0	0	---	0.00	30.016 
05:05	41.9	41.9	41.9	79	35.9	0	0	---	0.00	30.016 
05:10	42.1	42.1	42.1	79	36.1	0	0	---	0.00	30.016 
05:15	42.2	42.2	42.2	80	36.5	0	0	---	0.00	30.023 
05:20	42.3	42.3	42.3	80	36.6	0	0	---	0.00	30.023 
05:25	42.5	42.5	42.5	80	36.8	0	0	---	0.00	30.023 
05:30	42.8	42.8	42.8	80	37.1	0	0	---	0.00	30.032 
05:35	43.1	43.1	43.1	80	37.4	0	0	---	0.00	30.032 
05:40	43.2	43.2	43.2	80	37.5	0	0	---	0.00	30.032 
05:45	43.3	43.3	43.3	80	37.6	0	0	---	0.00	30.044 
05:50	43.5	43.5	43.5	79	37.4	0	0	---	0.00	30.044 
05:55	43.6	43.6	43.6	78	37.2	0	0	---	0.00	30.044 
06:00	43.6	43.6	43.6	78	37.2	0	0	---	0.00	30.046 
06:05	43.8	43.8	43.8	78	37.4	0	0	---	0.00	30.046 
06:10	43.8	43.8	43.8	78	37.4	0	0	---	0.00	30.046 
06:15	43.8	43.8	43.8	78	37.4	0	0	---	0.00	30.051 
06:20	43.9	43.9	43.9	78	37.5	0	0	---	0.00	30.051 
06:25	43.9	43.9	43.9	78	37.5	0	0	---	0.00	30.051 
06:30	43.9	43.9	43.9	78	37.5	0	0	---	0.00	30.050 
06:35	43.9	43.9	43.9	78	37.5	0	0	---	0.00	30.050 
06:40	43.9	43.9	43.9	78	37.5	0	0	---	0.00	30.050 
06:45	44.1	44.1	44.1	78	37.7	0	0	---	0.00	30.051 
06:50	44.1	44.1	44.1	78	37.7	0	0	---	0.00	30.051 
06:55	44.1	44.1	44.1	78	37.7	0	0	---	0.00	30.051 
07:00	44.2	44.2	44.2	78	37.8	0	0	---	0.00	30.050 
07:05	44.3	44.3	44.3	78	37.9	0	0	---	0.00	30.050 
07:10	44.5	44.5	44.5	79	38.4	0	0	---	0.00	30.050 
07:15	44.5	44.5	44.5	78	38.1	0	0	---	0.00	30.054 
07:20	44.6	44.6	44.6	78	38.2	0	0	---	0.00	30.054 
07:25	44.6	44.6	44.6	78	38.2	0	0	---	0.00	30.054 
07:30	44.8	44.8	44.8	78	38.4	0	0	---	0.00	30.054 
07:35	44.8	44.8	44.8	78	38.4	0	0	---	0.00	30.054 
07:40	44.8	44.8	44.8	78	38.4	0	0	---	0.00	30.054 
07:45	44.9	44.9	44.9	78	38.5	0	0	---	0.00	30.053 
07:50	44.9	44.9	44.9	78	38.5	0	0	---	0.00	30.053 
07:55	45.1	45.1	45.1	77	38.3	0	0	---	0.00	30.053 
08:00	45.2	45.2	45.2	77	38.4	0	0	---	0.00	30.060 
08:05	45.2	45.2	45.2	76	38.1	0	0	---	0.00	30.060 
08:10	45.4	45.4	45.4	76	38.3	0	0	---	0.00	30.060 
08:15	45.4	45.4	45.4	76	38.3	0	0	---	0.00	30.054 
08:20	45.7	45.7	45.7	76	38.6	0	0	---	0.00	30.054 
08:25	45.7	45.7	45.7	75	38.2	0	0	---	0.00	30.054 
08:30	46.0	46.0	46.0	74	38.2	0	0	---	0.00	30.068 
08:35	46.1	46.1	46.1	73	37.9	0	0	---	0.00	30.068 
08:40	46.2	46.2	46.2	73	38.0	0	0	---	0.00	30.068 
08:45	46.4	46.4	46.4	72	37.9	0	0	---	0.00	30.058 
08:50	46.5	46.5	46.5	73	38.3	0	0	---	0.00	30.058 
08:55	46.8	46.8	46.8	72	38.3	0	0	---	0.00	30.058 
09:00	47.0	47.0	47.0	71	38.1	0	0	---	0.00	30.067 
09:05	47.3	47.3	47.3	68	37.3	0	0	---	0.00	30.067 
09:10	47.6	47.6	47.6	65	36.4	0	0	---	0.00	30.067 
09:15	47.9	47.9	47.9	64	36.3	0	0	---	0.00	30.071 
09:20	48.3	48.3	48.3	62	35.9	0	1	315	0.00	30.071 
09:25	48.6	48.6	48.6	61	35.8	0	1	315	0.00	30.071 
09:30	49.1	49.1	49.1	60	35.8	0	1	315	0.00	30.066 
09:35	49.4	49.4	49.4	59	35.7	0	3	315	0.00	30.066 
09:40	49.6	49.6	49.6	59	35.9	0	3	0	0.00	30.066 
09:45	49.8	49.8	49.8	58	35.6	0	1	0	0.00	30.053 
09:50	50.1	50.1	50.1	59	36.3	1	3	0	0.00	30.053 
09:55	50.1	50.1	50.1	59	36.3	1	5	22	0.00	30.053 
10:00	50.1	50.1	50.1	59	36.3	1	2	90	0.00	30.053 
10:05	50.2	50.2	50.2	60	36.9	1	2	90	0.00	30.053 
10:10	50.5	50.5	50.5	60	37.1	0	3	90	0.00	30.053 
10:15	50.7	50.7	50.7	60	37.3	0	2	90	0.00	30.054 
10:20	51.0	51.0	51.0	60	37.6	0	1	90	0.00	30.054 
10:25	51.3	51.3	51.3	60	37.9	0	1	90	0.00	30.054 
10:30	51.7	51.7	51.7	60	38.3	0	1	90	0.00	30.064 
10:35	52.0	52.0	52.0	59	38.1	0	1	90	0.00	30.064 
10:40	52.2	52.2	52.2	56	37.0	0	2	90	0.00	30.064 
10:45	52.3	52.3	52.3	55	36.6	0	2	90	0.00	30.061 
10:50	52.5	52.5	52.5	58	38.2	0	1	90	0.00	30.061 
10:55	52.8	52.8	52.8	55	37.1	0	2	90	0.00	30.061 
11:00	53.1	53.1	53.1	54	36.9	0	2	90	0.00	30.060 
11:05	53.2	53.2	53.2	54	37.0	0	1	90	0.00	30.060 
11:10	53.3	53.3	53.3	56	38.0	0	2	90	0.00	30.060 
11:15	53.5	53.5	53.5	54	37.3	0	2	90	0.00	30.052 
11:20	53.6	53.6	53.6	55	37.8	0	1	90	0.00	30.052 
11:25	53.8	53.8	53.8	54	37.5	0	1	90	0.00	30.052 
11:30	54.1	54.1	54.1	53	37.4	0	1	90	0.00	30.073 
11:35	54.5	54.5	54.5	51	36.7	0	3	90	0.00	30.073 
11:40	54.7	54.7	54.7	49	35.9	0	2	90	0.00	30.073 
11:45	54.7	54.7	54.7	49	35.9	0	2	90	0.00	30.053 
11:50	54.8	54.8	54.8	48	35.5	1	3	90	0.00	30.053 
11:55	54.8	54.8	54.8	48	35.5	0	2	90	0.00	30.053 
12:00	55.1	55.1	55.1	46	34.7	0	1	90	0.00	30.055 
12:05	55.3	55.3	55.3	48	35.9	0	1	90	0.00	30.055 
12:10	55.1	55.1	55.1	49	36.3	0	3	90	0.00	30.055 
12:15	54.8	54.8	54.8	48	35.5	0	2	68	0.00	30.060 
12:20	54.7	54.7	54.7	49	35.9	0	1	68	0.00	30.060 
12:25	54.4	54.4	54.4	50	36.2	0	1	68	0.00	30.060 
12:30	54.4	54.4	54.4	51	36.7	0	1	68	0.00	30.061 
12:35	54.2	54.2	54.2	50	36.0	0	1	68	0.00	30.061 
12:40	54.1	54.1	54.1	51	36.4	0	1	68	0.00	30.061 
12:45	53.9	53.9	53.9	50	35.7	0	1	68	0.00	30.055 
12:50	53.9	53.9	53.9	51	36.2	0	1	68	0.00	30.055 
12:55	54.2	54.2	54.2	50	36.0	1	3	68	0.00	30.055 
13:00	54.2	54.2	54.2	51	36.5	0	2	68	0.00	30.046 
13:05	54.2	54.2	54.2	50	36.0	1	2	68	0.00	30.046 
13:10	54.2	54.2	54.2	50	36.0	0	2	68	0.00	30.046 
13:15	54.2	54.2	54.2	48	34.9	0	3	68	0.00	30.043 
13:20	54.4	54.4	54.4	50	36.2	0	1	68	0.00	30.043 
13:25	54.5	54.5	54.5	49	35.7	1	2	68	0.00	30.043 
13:30	54.7	54.7	54.7	49	35.9	0	1	68	0.00	30.040 
13:35	54.5	54.5	54.5	47	34.7	0	1	68	0.00	30.040 
13:40	54.7	54.7	54.7	46	34.3	0	1	68	0.00	30.040 
13:45	54.8	54.8	54.8	46	34.4	0	2	248	0.00	30.031 
13:50	54.8	54.8	54.8	45	33.9	0	2	248	0.00	30.031 
13:55	54.8	54.8	54.8	44	33.3	0	2	225	0.00	30.031 
14:00	54.8	54.8	54.8	43	32.7	0	3	90	0.00	30.025 
14:05	55.0	55.0	55.0	43	32.9	0	1	90	0.00	30.025 
14:10	55.0	55.0	55.0	44	33.5	0	2	90	0.00	30.025 
14:15	55.1	55.1	55.1	45	34.1	0	1	90	0.00	30.025 
14:20	55.0	55.0	55.0	45	34.1	0	1	90	0.00	30.025 
14:25	55.0	55.0	55.0	45	34.1	0	1	90	0.00	30.025 
14:30	54.8	54.8	54.8	45	33.9	0	1	90	0.00	30.025 
14:35	54.7	54.7	54.7	46	34.3	0	1	90	0.00	30.025 
14:40	54.7	54.7	54.7	45	33.8	0	1	90	0.00	30.025 
14:45	54.5	54.5	54.5	45	33.6	0	1	90	0.00	30.018 
14:50	54.5	54.5	54.5	44	33.0	0	2	90	0.00	30.018 
14:55	54.5	54.5	54.5	43	32.5	0	2	90	0.00	30.018 
15:00	54.7	54.7	54.7	43	32.6	0	1	90	0.00	30.004 
15:05	54.7	54.7	54.7	42	32.1	1	5	90	0.00	30.004 
15:10	54.7	54.7	54.7	44	33.2	0	3	90	0.00	30.004 
15:15	54.7	54.7	54.7	43	32.6	0	2	90	0.00	29.994 
15:20	54.7	54.7	54.7	44	33.2	0	1	90	0.00	29.994 
15:25	54.7	54.7	54.7	43	32.6	0	2	90	0.00	29.994 
15:30	54.7	54.7	54.7	43	32.6	0	2	90	0.00	29.994 
15:35	54.8	54.8	54.8	43	32.7	1	3	90	0.00	29.994 
15:40	55.0	55.0	55.0	43	32.9	1	2	90	0.00	29.994 
15:45	55.1	55.1	55.1	43	33.0	0	2	90	0.00	29.989 
15:50	55.1	55.1	55.1	41	31.8	0	3	90	0.00	29.989 
15:55	55.3	55.3	55.3	41	32.0	1	3	90	0.00	29.989 
16:00	55.3	55.3	55.3	41	32.0	1	3	90	0.00	29.989 
16:05	55.3	55.3	55.3	39	30.8	1	3	90	0.00	29.989 
16:10	55.4	55.4	55.4	40	31.5	1	4	90	0.00	29.989 
16:15	55.4	55.4	55.4	39	30.9	0	1	90	0.00	29.982 
16:20	55.4	55.4	55.4	40	31.5	1	3	90	0.00	29.982 
16:25	55.4	55.4	55.4	41	32.1	0	2	90	0.00	29.982 
16:30	55.4	55.4	55.4	39	30.9	0	1	90	0.00	29.982 
16:35	55.6	55.6	55.6	38	30.4	0	1	292	0.00	29.982 
16:40	55.7	55.7	55.7	37	29.8	1	3	22	0.00	29.982 
16:45	55.7	55.7	55.7	37	29.8	0	2	22	0.00	29.975 
16:50	55.7	55.7	55.7	37	29.8	0	2	22	0.00	29.975 
16:55	55.9	55.9	55.9	38	30.7	0	1	45	0.00	29.975 
17:00	55.9	55.9	55.9	36	29.3	0	2	45	0.00	29.968 
17:05	56.0	56.0	56.0	36	29.4	0	1	45	0.00	29.968 
17:10	56.2	56.2	56.2	35	28.9	0	1	45	0.00	29.968 
17:15	56.2	56.2	56.2	37	30.3	0	1	45	0.00	29.963 
17:20	56.3	56.3	56.3	35	29.0	0	1	45	0.00	29.963 
17:25	56.3	56.3	56.3	35	29.0	0	1	45	0.00	29.963 
17:30	56.2	56.2	56.2	36	29.6	0	2	45	0.00	29.965 
17:35	55.9	55.9	55.9	36	29.3	0	1	45	0.00	29.965 
17:40	55.7	55.7	55.7	37	29.8	0	1	45	0.00	29.965 
17:45	55.7	55.7	55.7	38	30.5	0	0	---	0.00	29.965 
17:50	55.7	55.7	55.7	37	29.8	0	1	45	0.00	29.965 
17:55	55.6	55.6	55.6	39	31.0	0	0	---	0.00	29.965 
18:00	55.6	55.6	55.6	39	31.0	0	0	---	0.00	29.967 
18:05	55.4	55.4	55.4	41	32.1	0	0	---	0.00	29.967 
18:10	55.3	55.3	55.3	41	32.0	0	0	---	0.00	29.967 
18:15	55.1	55.1	55.1	43	33.0	0	0	---	0.00	29.972 
18:20	55.0	55.0	55.0	42	32.3	0	0	---	0.00	29.972 
18:25	54.8	54.8	54.8	43	32.7	0	0	---	0.00	29.972 
18:30	54.5	54.5	54.5	42	31.9	0	0	---	0.00	29.974 
18:35	54.2	54.2	54.2	43	32.2	0	0	---	0.00	29.974 
18:40	53.9	53.9	53.9	43	31.9	0	0	---	0.00	29.974 
18:45	53.6	53.6	53.6	46	33.3	0	0	---	0.00	29.971 
18:50	53.3	53.3	53.3	47	33.6	0	0	---	0.00	29.971 
18:55	52.9	52.9	52.9	48	33.7	0	0	---	0.00	29.971 
19:00	52.6	52.6	52.6	47	32.9	0	0	---	0.00	29.975 
19:05	52.3	52.3	52.3	47	32.7	0	0	---	0.00	29.975 
19:10	52.0	52.0	52.0	51	34.4	0	0	---	0.00	29.975 
19:15	51.7	51.7	51.7	51	34.2	0	0	---	0.00	29.964 
19:20	51.4	51.4	51.4	50	33.4	0	0	---	0.00	29.964 
19:25	51.1	51.1	51.1	50	33.1	0	0	---	0.00	29.964 
19:30	50.8	50.8	50.8	53	34.3	0	0	---	0.00	29.973 
19:35	50.7	50.7	50.7	54	34.7	0	0	---	0.00	29.973 
19:40	50.5	50.5	50.5	55	34.9	0	0	---	0.00	29.973 
19:45	50.4	50.4	50.4	57	35.7	0	0	---	0.00	29.966 
19:50	50.2	50.2	50.2	58	36.0	0	0	---	0.00	29.966 
19:55	49.9	49.9	49.9	58	35.7	0	0	---	0.00	29.966 
20:00	49.8	49.8	49.8	56	34.7	0	0	---	0.00	29.965 
20:05	49.5	49.5	49.5	56	34.5	0	0	---	0.00	29.965 
20:10	49.4	49.4	49.4	57	34.8	0	0	---	0.00	29.965 
20:15	49.1	49.1	49.1	58	35.0	0	0	---	0.00	29.967 
20:20	48.8	48.8	48.8	58	34.7	0	0	---	0.00	29.967 
20:25	48.5	48.5	48.5	59	34.8	0	0	---	0.00	29.967 
20:30	48.0	48.0	48.0	60	34.8	0	0	---	0.00	29.974 
20:35	47.6	47.6	47.6	61	34.8	0	0	---	0.00	29.974 
20:40	47.0	47.0	47.0	62	34.7	0	0	---	0.00	29.974 
20:45	46.5	46.5	46.5	64	35.0	0	0	---	0.00	29.977 
20:50	46.2	46.2	46.2	65	35.1	0	0	---	0.00	29.977 
20:55	45.8	45.8	45.8	65	34.7	0	0	---	0.00	29.977 
21:00	45.4	45.4	45.4	66	34.7	0	0	---	0.00	29.980 
21:05	45.1	45.1	45.1	68	35.2	0	0	---	0.00	29.980 
21:10	44.8	44.8	44.8	69	35.3	0	0	---	0.00	29.980 
21:15	44.5	44.5	44.5	69	35.0	0	0	---	0.00	29.980 
21:20	44.2	44.2	44.2	69	34.7	0	0	---	0.00	29.980 
21:25	43.9	43.9	43.9	69	34.4	0	0	---	0.00	29.980 
21:30	43.6	43.6	43.6	70	34.5	0	0	---	0.00	29.980 
21:35	43.3	43.3	43.3	71	34.5	0	0	---	0.00	29.980 
21:40	43.1	43.1	43.1	72	34.7	0	0	---	0.00	29.980 
21:45	42.8	42.8	42.8	72	34.4	0	0	---	0.00	29.982 
21:50	42.6	42.6	42.6	73	34.6	0	0	---	0.00	29.982 
21:55	42.3	42.3	42.3	74	34.6	0	0	---	0.00	29.982 
22:00	42.1	42.1	42.1	75	34.8	0	0	---	0.00	29.984 
22:05	41.9	41.9	41.9	75	34.6	0	0	---	0.00	29.984 
22:10	41.8	41.8	41.8	76	34.8	0	0	---	0.00	29.984 
22:15	41.6	41.6	41.6	76	34.6	0	0	---	0.00	29.982 
22:20	41.3	41.3	41.3	77	34.6	0	1	45	0.00	29.982 
22:25	41.2	41.2	41.2	77	34.5	0	0	---	0.00	29.982 
22:30	41.1	41.1	41.1	78	34.8	0	0	---	0.00	29.986 
22:35	40.9	40.9	40.9	78	34.6	0	0	---	0.00	29.986 
22:40	40.8	40.8	40.8	79	34.8	0	0	---	0.00	29.986 
22:45	40.6	40.6	40.6	79	34.6	0	0	---	0.00	29.990 
22:50	40.6	40.6	40.6	79	34.6	0	0	---	0.00	29.990 
22:55	40.5	40.5	40.5	79	34.5	0	0	---	0.00	29.990 
23:00	40.3	40.3	40.3	80	34.6	0	0	---	0.00	29.993 
23:05	40.3	40.3	40.3	80	34.6	0	0	---	0.00	29.993 
23:10	40.5	40.5	40.5	80	34.8	0	0	---	0.00	29.993 
23:15	40.5	40.5	40.5	79	34.5	0	0	---	0.00	29.993 
23:20	40.5	40.5	40.5	79	34.5	0	0	---	0.00	29.993 
23:25	40.3	40.3	40.3	79	34.3	0	0	---	0.00	29.993 
23:30	40.3	40.3	40.3	79	34.3	0	0	---	0.00	29.994 
23:35	40.3	40.3	40.3	79	34.3	0	0	---	0.00	29.994 
23:40	40.3	40.3	40.3	79	34.3	0	0	---	0.00	29.994 
23:45	40.3	40.3	40.3	79	34.3	0	0	---	0.00	29.992 
23:50	40.2	40.2	40.2	79	34.2	0	0	---	0.00	29.992 
23:55	40.1	40.1	40.1	79	34.1	0	0	---	0.00	29.992 

CoCoRaHS
IN-AL-39
A2 Web Hosting
Creative Commons License
GoDaddy
search engine by freefind advanced

loaded 2018-11-20 06:13:13 • last modified 2010-11-18 10:43:29
Privacy PolicyDisclaimer
• wx.awcolley.com is powered by PmWiki v.2002016 •
• all content (unless otherwise noted) © 2018 A W Colley